Strona główna
METAR-TAF:

METAR-TAF

Lotnisko :

Port lotniczy Harbin-Taiping

Harbin, Chiny

Szerokość geograficzna: 45-45N, Długość geograficzna: 126-46E, wysokość: 143 m

Aktualna obserwacja pogody

Raport powstał 15 minut temu, godzina 11:00 UTC
Wiatr 6 kt od południowo-południowy zachód
Temperatura -15°C
Wilgotność 92%
Ciśnienie 1024 hPa
Widzialność 10 km lub więcej
Brak chmur poniżej 1500 m i brak chmur cumulonimbus

METAR: ZYHB 191100Z 21003MPS CAVOK M15/M16 Q1024 NOSIG

czas: 19:15 (11:15 UTC)

Prognoza

Raport powstał 8 godziny i 10 minut temu, godzina 03:05 UTC
Prognoza ważna od 19 godzina 06 UTC do 20 godzina 06 UTC
Wiatr 10 kt od zachód
Widzialność: 6000 m
Rozproszone chmury na wysokości 3300 ft
Stopniowe zmiany
od 19 godzina 09 UTC do 19 godzina 10 UTC
Wiatr 6 kt od południowy zachód

TAF: ZYHB 190305Z 1906/2006 28005MPS 6000 SCT033 TXM09/06Z TNM18/22Z BECMG 1909/1910 22003MPS

Obserwacja i prognoza pogody dla ponad 4000 lotnisk (raport METAR i TAF).

Dostępne stacje oznaczono żółtymi i czerwonymi punktami na mapie.

Najedź kursorem aby zobaczyć nazwę stacji.

Kliknij aby zobaczyć obserwacje i prognozy pogody.

Aby zmienić mapę: kliknij na zielony przycisk z czarnym krzyżykiem, aby powiększyć; na zielony przycisk z myślnikiem, aby pomniejszyć; na zielone strzałki, aby przejść do map sąsiednich.


METAR-TAF: